Time;durP1;ratioP1;P1;durP2;ratioP2;P2;SDS_P1;SDS_P2;PMS_P1;PMS_P2;Temp;Humidity;BMP_temperature;BMP_pressure;BME280_temperature;BME280_humidity;BME280_pressure;Samples;Min_cycle;Max_cycle;Signal;HPM_P1;HPM_P2
2022/10/10 05:25:31;;;;;;;12.75;6.70;;;;;;;6.99;84.74;98242.13;5402605;23;20090;-64
2022/10/10 05:27:57;;;;;;;13.48;6.20;;;;;;;7.02;85.54;98241.94;4954154;28;20031;-52
2022/10/10 05:30:22;;;;;;;12.15;6.70;;;;;;;7.08;85.09;98239.00;4947930;28;20031;-49
2022/10/10 05:32:47;;;;;;;18.02;6.72;;;;;;;7.16;84.72;98239.44;4957122;28;20035;-48
2022/10/10 05:35:13;;;;;;;11.18;5.90;;;;;;;7.22;84.77;98243.47;4955334;28;20027;-49
2022/10/10 05:37:38;;;;;;;12.32;6.28;;;;;;;7.31;84.88;98249.03;4944302;29;20038;-53
2022/10/10 05:40:04;;;;;;;14.43;6.85;;;;;;;7.34;84.79;98256.69;4929949;29;20090;-52
2022/10/10 05:42:29;;;;;;;15.50;6.60;;;;;;;7.45;84.05;98260.50;4942393;29;20028;-50
2022/10/10 05:44:54;;;;;;;15.32;6.88;;;;;;;7.48;84.07;98255.09;4942265;28;20039;-48
2022/10/10 05:47:20;;;;;;;12.23;6.25;;;;;;;7.53;83.74;98258.28;4933385;29;20062;-53
2022/10/10 05:49:45;;;;;;;15.63;6.78;;;;;;;7.56;83.69;98252.91;4936424;29;20537;-50
2022/10/10 05:52:11;;;;;;;16.55;6.88;;;;;;;7.55;83.95;98252.06;4931233;29;20498;-52
2022/10/10 05:54:36;;;;;;;13.90;6.53;;;;;;;7.60;83.78;98259.63;4943251;28;20082;-52
2022/10/10 05:57:01;;;;;;;13.40;6.75;;;;;;;7.63;83.62;98262.06;4926917;29;20404;-46
2022/10/10 05:59:28;;;;;;;12.60;6.22;;;;;;;7.66;83.08;98258.47;4938791;29;20036;-52
2022/10/10 06:01:53;;;;;;;11.73;5.90;;;;;;;7.69;84.23;98264.34;4940488;29;20528;-50
2022/10/10 06:04:18;;;;;;;12.50;5.88;;;;;;;7.67;83.37;98260.97;4942034;29;20038;-49
2022/10/10 06:06:44;;;;;;;14.50;6.38;;;;;;;7.67;82.63;98266.19;4948487;29;20588;-49
2022/10/10 06:09:09;;;;;;;13.05;5.90;;;;;;;7.70;81.81;98268.63;4945288;29;20038;-47
2022/10/10 06:11:35;;;;;;;13.73;5.47;;;;;;;7.65;83.28;98265.47;4934364;29;20414;-51
2022/10/10 06:14:00;;;;;;;12.57;5.53;;;;;;;7.61;82.42;98262.19;4946964;28;20070;-56
2022/10/10 06:16:25;;;;;;;11.10;4.78;;;;;;;7.60;82.33;98262.25;4941617;29;20037;-52
2022/10/10 06:18:51;;;;;;;13.77;5.75;;;;;;;7.61;82.65;98261.34;4936599;29;20039;-56
2022/10/10 06:21:17;;;;;;;12.80;5.65;;;;;;;7.58;81.87;98261.50;4942081;29;20030;-56
2022/10/10 06:23:43;;;;;;;12.35;5.40;;;;;;;7.57;82.29;98265.03;4950239;29;20582;-54
2022/10/10 06:26:09;;;;;;;11.82;5.70;;;;;;;7.55;82.88;98262.50;4932435;29;20042;-53
2022/10/10 06:28:34;;;;;;;11.98;6.10;;;;;;;7.60;83.08;98264.84;4940276;29;20043;-54
2022/10/10 06:31:01;;;;;;;13.25;5.93;;;;;;;7.62;83.34;98263.00;4940405;29;20116;-55
2022/10/10 06:33:26;;;;;;;13.02;6.10;;;;;;;7.61;84.08;98266.56;4923235;29;20027;-51
2022/10/10 06:35:51;;;;;;;15.43;6.57;;;;;;;7.60;83.98;98268.34;4944318;28;20034;-56
2022/10/10 16:38:52;;;;;;;18.42;11.15;;;;;;;15.88;77.04;98282.34;4931140;29;20051;-58
2022/10/10 16:41:18;;;;;;;18.77;9.02;;;;;;;15.90;76.59;98283.88;4933031;29;20086;-59
2022/10/10 16:43:44;;;;;;;14.52;8.18;;;;;;;15.85;77.06;98288.72;4932523;29;20436;-55
2022/10/10 16:46:11;;;;;;;15.40;8.32;;;;;;;15.76;77.26;98294.88;4937069;29;20031;-56
2022/10/10 16:48:38;;;;;;;17.33;8.98;;;;;;;15.77;77.32;98296.53;4929309;28;20019;-55
2022/10/10 16:51:07;;;;;;;17.70;8.60;;;;;;;15.56;78.41;98301.88;4939908;28;20051;-54
2022/10/10 16:53:33;;;;;;;19.20;9.90;;;;;;;15.52;78.53;98299.59;4933886;29;20079;-58
2022/10/10 16:55:58;;;;;;;16.85;9.73;;;;;;;15.44;79.42;98305.56;4933659;29;20106;-55
2022/10/10 16:58:24;;;;;;;22.90;11.02;;;;;;;15.29;79.77;98299.81;4949525;28;20023;-55
2022/10/10 17:00:50;;;;;;;18.58;11.70;;;;;;;15.24;80.04;98307.28;4937318;29;20031;-59
2022/10/10 17:03:15;;;;;;;20.60;10.45;;;;;;;15.11;80.96;98304.88;4933003;29;20431;-55
2022/10/10 17:05:41;;;;;;;20.23;10.45;;;;;;;15.07;80.89;98318.47;4942693;29;20027;-57
2022/10/10 17:08:06;;;;;;;15.38;9.27;;;;;;;15.03;81.02;98309.97;4935859;29;20376;-59
2022/10/10 17:10:31;;;;;;;19.55;9.60;;;;;;;14.93;81.49;98320.50;4947185;29;20033;-57
2022/10/10 17:12:57;;;;;;;21.17;10.20;;;;;;;14.77;83.01;98317.47;4941710;28;20373;-57
2022/10/10 17:15:22;;;;;;;19.02;9.90;;;;;;;14.73;82.57;98318.69;4934404;29;20032;-55
2022/10/10 17:17:47;;;;;;;18.00;9.02;;;;;;;14.67;83.25;98317.38;4941895;29;20039;-56
2022/10/10 17:20:13;;;;;;;19.73;10.68;;;;;;;14.61;83.38;98319.69;4946951;29;20426;-56
2022/10/10 17:22:39;;;;;;;17.98;9.60;;;;;;;14.55;83.20;98320.19;4944351;28;20035;-55
2022/10/10 17:25:05;;;;;;;20.38;10.23;;;;;;;14.41;83.60;98329.22;4946350;29;20039;-53
2022/10/10 17:27:31;;;;;;;20.50;10.77;;;;;;;14.34;83.49;98328.06;4938178;28;20470;-55
2022/10/10 17:29:56;;;;;;;20.13;10.73;;;;;;;14.20;84.38;98334.47;4922812;29;20032;-55
2022/10/10 17:32:21;;;;;;;20.90;10.90;;;;;;;14.18;84.53;98334.59;4933789;29;20024;-58
2022/10/10 17:34:47;;;;;;;25.48;11.13;;;;;;;14.10;84.26;98330.88;4941600;29;20119;-57
2022/10/10 17:37:12;;;;;;;19.13;10.73;;;;;;;13.95;85.18;98338.25;4934338;28;20766;-56
2022/10/10 17:39:37;;;;;;;24.95;11.27;;;;;;;13.82;85.46;98343.66;4941574;29;20035;-57
2022/10/10 17:42:03;;;;;;;20.20;11.23;;;;;;;13.74;85.67;98346.06;4929957;29;20031;-57
2022/10/10 17:44:29;;;;;;;20.90;11.90;;;;;;;13.70;85.58;98339.38;4930690;29;20050;-58
2022/10/10 17:46:55;;;;;;;20.48;10.93;;;;;;;13.64;85.83;98339.84;4940262;29;20126;-55
2022/10/10 17:49:20;;;;;;;20.67;11.70;;;;;;;13.50;85.75;98347.03;4941257;29;20373;-59
2022/10/10 17:51:46;;;;;;;22.60;11.27;;;;;;;13.41;86.68;98345.13;4930848;29;20035;-59
2022/10/10 17:54:12;;;;;;;23.60;12.07;;;;;;;13.36;86.80;98341.19;4943373;29;20471;-59
2022/10/10 17:56:39;;;;;;;23.58;11.68;;;;;;;13.33;87.28;98346.69;4936935;28;20031;-58
2022/10/10 17:59:05;;;;;;;23.35;11.68;;;;;;;13.28;86.77;98345.25;4932803;29;20365;-57
2022/10/10 18:01:30;;;;;;;19.92;10.65;;;;;;;13.21;86.73;98348.41;4940404;29;20043;-56
2022/10/10 18:03:56;;;;;;;21.27;11.30;;;;;;;13.08;87.63;98353.81;4938529;29;20086;-56
2022/10/10 18:06:21;;;;;;;19.15;10.73;;;;;;;13.01;87.45;98353.44;4932720;29;20522;-56
2022/10/10 18:08:48;;;;;;;21.00;10.73;;;;;;;12.95;88.17;98351.25;4941457;28;20047;-56
2022/10/10 18:11:15;;;;;;;25.27;11.68;;;;;;;12.92;88.27;98355.94;4939576;29;20027;-56
2022/10/10 18:13:41;;;;;;;21.52;11.98;;;;;;;12.82;88.23;98350.50;4928870;28;20780;-58
2022/10/10 18:16:11;;;;;;;22.05;11.63;;;;;;;12.81;88.16;98346.22;4946536;28;20106;-57
2022/10/10 18:18:37;;;;;;;22.38;11.45;;;;;;;12.76;88.21;98354.44;4930242;29;20016;-56
2022/10/10 18:21:03;;;;;;;21.95;11.52;;;;;;;12.72;88.66;98358.25;4939394;28;20020;-57
2022/10/10 18:23:29;;;;;;;18.67;11.55;;;;;;;12.64;88.58;98362.44;4932211;29;20087;-56
2022/10/10 18:26:01;;;;;;;20.35;11.68;;;;;;;12.61;89.24;98360.84;4936232;29;20448;-56
2022/10/10 18:28:29;;;;;;;21.73;11.48;;;;;;;12.55;89.15;98361.31;4930464;29;20371;-57
2022/10/10 18:30:55;;;;;;;21.38;11.82;;;;;;;12.52;89.28;98357.09;4947409;29;20031;-56
2022/10/10 18:33:20;;;;;;;19.83;11.02;;;;;;;12.49;89.34;98362.63;4933049;29;20079;-58
2022/10/10 18:35:46;;;;;;;23.25;13.18;;;;;;;12.36;89.15;98361.84;4941556;29;20479;-57
2022/10/10 18:38:11;;;;;;;27.42;15.57;;;;;;;12.38;89.59;98362.53;4933133;29;20028;-57
2022/10/10 18:40:36;;;;;;;24.52;13.75;;;;;;;12.36;89.21;98361.84;4940910;28;20027;-58
2022/10/10 18:43:02;;;;;;;23.10;13.07;;;;;;;12.38;89.46;98364.34;4931349;29;20085;-57
2022/10/10 18:45:27;;;;;;;25.20;13.57;;;;;;;12.38;89.59;98365.19;4947860;29;20033;-56
2022/10/10 18:47:52;;;;;;;23.00;13.40;;;;;;;12.32;88.24;98368.28;4932785;28;20399;-57
2022/10/10 18:50:18;;;;;;;27.48;15.95;;;;;;;12.34;88.57;98368.97;4941492;29;20082;-56
2022/10/10 18:52:44;;;;;;;34.03;19.65;;;;;;;12.21;89.80;98368.19;4934301;29;20036;-56
2022/10/10 18:55:12;;;;;;;37.80;20.58;;;;;;;12.21;89.48;98368.19;4939704;28;20060;-57
2022/10/10 18:57:38;;;;;;;39.08;20.25;;;;;;;12.24;89.23;98366.19;4939016;29;20031;-58
2022/10/10 19:00:04;;;;;;;36.28;20.42;;;;;;;12.24;89.28;98370.59;4941185;28;20042;-57
2022/10/10 19:02:29;;;;;;;43.55;25.35;;;;;;;12.16;89.18;98365.06;4939349;28;20622;-58
2022/10/10 19:04:54;;;;;;;31.65;19.30;;;;;;;12.00;89.85;98370.59;4944393;28;20027;-56
2022/10/10 19:07:20;;;;;;;27.80;16.15;;;;;;;11.84;88.46;98370.84;4942460;28;20063;-54
2022/10/10 19:09:45;;;;;;;27.77;13.43;;;;;;;11.56;88.47;98372.78;4951702;29;20050;-55
2022/10/10 19:12:10;;;;;;;25.30;13.57;;;;;;;11.37;89.94;98382.88;4931855;28;20027;-53
2022/10/10 19:14:36;;;;;;;20.92;12.13;;;;;;;11.34;90.81;98383.91;4935906;29;20484;-54
2022/10/10 19:17:01;;;;;;;27.70;13.75;;;;;;;11.25;92.14;98378.44;4947804;28;20029;-56
2022/10/10 19:19:27;;;;;;;25.90;13.55;;;;;;;11.16;93.50;98388.63;4934758;28;20034;-56
2022/10/10 19:21:52;;;;;;;24.30;12.98;;;;;;;11.06;94.62;98382.31;4928667;29;20091;-57
2022/10/10 19:24:19;;;;;;;24.85;13.70;;;;;;;11.02;94.54;98387.91;4935281;29;20472;-54
2022/10/10 19:26:50;;;;;;;24.70;13.27;;;;;;;11.01;94.45;98392.31;4933183;29;20393;-54
2022/10/10 19:29:16;;;;;;;31.05;17.25;;;;;;;11.11;93.04;98392.50;4934153;29;20040;-54
2022/10/10 19:31:41;;;;;;;44.45;28.70;;;;;;;11.11;93.21;98398.63;4937732;29;20035;-58
2022/10/10 19:34:06;;;;;;;24.02;14.48;;;;;;;11.16;93.39;98391.25;4935029;28;20023;-57
2022/10/10 19:36:32;;;;;;;20.80;12.32;;;;;;;11.15;92.79;98400.09;4936865;28;20023;-57
2022/10/10 19:38:58;;;;;;;23.13;13.00;;;;;;;11.12;92.18;98400.28;4936191;29;20542;-56
2022/10/10 19:41:23;;;;;;;28.63;15.65;;;;;;;11.15;92.37;98407.13;4934289;29;20031;-56
2022/10/10 19:43:50;;;;;;;31.30;15.82;;;;;;;11.14;91.94;98408.06;4935803;29;20377;-55
2022/10/10 19:46:16;;;;;;;27.05;16.35;;;;;;;11.11;92.09;98409.13;4923337;29;20083;-55
2022/10/10 19:48:42;;;;;;;26.08;15.50;;;;;;;11.11;92.24;98408.25;4938086;29;20433;-57
2022/10/10 19:51:09;;;;;;;27.23;15.05;;;;;;;11.04;92.14;98415.69;4935378;28;20027;-57
2022/10/10 19:53:35;;;;;;;26.50;15.70;;;;;;;11.03;91.40;98414.03;4933176;29;20055;-57
2022/10/10 19:56:23;;;;;;;26.27;14.25;;;;;;;11.05;91.55;98413.94;4933822;29;20106;-56
2022/10/10 19:58:55;;;;;;;32.17;15.60;;;;;;;10.99;91.70;98411.72;4933178;29;20042;-58
2022/10/10 20:01:22;;;;;;;31.20;14.93;;;;;;;10.90;92.19;98414.00;4931782;29;20471;-57
2022/10/10 20:03:47;;;;;;;26.65;13.20;;;;;;;10.92;92.10;98409.50;4936636;29;20036;-57
2022/10/10 20:06:13;;;;;;;24.85;13.43;;;;;;;10.92;92.58;98411.28;4934760;29;20042;-59
2022/10/10 20:08:39;;;;;;;23.05;12.50;;;;;;;10.90;92.02;98415.78;4933868;29;20480;-59
2022/10/10 20:11:04;;;;;;;23.45;13.30;;;;;;;10.83;92.00;98415.34;4939919;29;20090;-60
2022/10/10 20:13:30;;;;;;;22.88;14.00;;;;;;;10.80;92.13;98409.47;4940831;29;20032;-59
2022/10/10 20:15:58;;;;;;;25.73;14.45;;;;;;;10.79;92.25;98407.78;4936686;29;20087;-60
2022/10/10 20:18:24;;;;;;;33.70;17.17;;;;;;;10.79;91.78;98407.78;4934924;29;20042;-60
2022/10/10 20:20:50;;;;;;;28.83;18.63;;;;;;;10.80;91.80;98412.09;4936080;29;20035;-59
2022/10/10 20:23:16;;;;;;;28.77;17.15;;;;;;;10.79;92.47;98407.78;4934778;29;20023;-62
2022/10/10 20:25:42;;;;;;;27.38;14.65;;;;;;;10.79;92.19;98407.78;4935529;29;20020;-59
